Time;durP1;ratioP1;P1;durP2;ratioP2;P2;SDS_P1;SDS_P2;PMS_P1;PMS_P2;Temp;Humidity;BMP_temperature;BMP_pressure;BME280_temperature;BME280_humidity;BME280_pressure;Samples;Min_cycle;Max_cycle;Signal;HPM_P1;HPM_P2
2021/01/30 00:01:34;;;;;;;1.52;0.85;;;6.50;99.90;;;;;;6154164;23;20186;-84
2021/01/30 00:04:01;;;;;;;1.10;1.10;;;6.40;99.90;;;;;;6157086;23;20176;-84
2021/01/30 00:06:34;;;;;;;0.73;0.73;;;6.40;99.90;;;;;;6156911;23;20332;-84
2021/01/30 00:09:15;;;;;;;1.08;1.08;;;6.40;99.90;;;;;;6157187;23;20186;-86
2021/01/30 00:11:50;;;;;;;1.10;1.10;;;6.40;99.90;;;;;;6157746;23;20190;-84
2021/01/30 00:14:24;;;;;;;1.10;1.10;;;6.40;99.90;;;;;;6158711;23;20225;-84
2021/01/30 00:16:51;;;;;;;0.88;0.85;;;6.40;99.90;;;;;;6159700;23;20210;-84
2021/01/30 00:19:18;;;;;;;1.65;0.70;;;6.40;99.90;;;;;;6160707;23;20212;-84
2021/01/30 00:21:49;;;;;;;1.20;0.68;;;6.40;99.90;;;;;;6159669;23;20508;-84
2021/01/30 00:24:15;;;;;;;1.95;1.20;;;6.40;99.90;;;;;;6160140;23;20193;-83
2021/01/30 00:26:42;;;;;;;1.20;1.10;;;6.40;99.90;;;;;;6160831;23;20249;-84
2021/01/30 00:29:08;;;;;;;0.80;0.80;;;6.30;99.90;;;;;;6159655;23;20182;-84
2021/01/30 00:31:50;;;;;;;1.40;1.17;;;6.30;99.90;;;;;;6159082;23;20179;-84
2021/01/30 00:34:25;;;;;;;2.53;0.88;;;6.30;99.90;;;;;;6159089;23;20196;-84
2021/01/30 00:37:03;;;;;;;1.25;1.15;;;6.20;99.90;;;;;;6159030;23;20213;-83
2021/01/30 00:39:43;;;;;;;1.00;0.90;;;6.20;99.90;;;;;;6159354;23;20193;-84
2021/01/30 00:45:07;;;;;;;3.67;1.85;;;6.20;99.90;;;;;;6159186;23;20193;-84
2021/01/30 00:47:41;;;;;;;0.80;0.80;;;6.10;99.90;;;;;;6162195;23;20210;-83
2021/01/30 00:50:20;;;;;;;0.70;0.70;;;6.00;99.90;;;;;;6163451;23;20190;-85
2021/01/30 00:52:48;;;;;;;1.30;0.93;;;6.00;99.90;;;;;;6162450;23;20241;-85
2021/01/30 00:55:45;;;;;;;1.67;1.13;;;6.00;99.90;;;;;;6161459;23;20191;-84
2021/01/30 00:58:14;;;;;;;1.05;0.80;;;6.10;99.90;;;;;;6159716;23;20170;-84
2021/01/30 01:00:47;;;;;;;1.83;1.10;;;6.20;99.90;;;;;;6159567;23;20696;-83
2021/01/30 01:03:25;;;;;;;3.33;0.80;;;6.30;99.90;;;;;;6158187;23;20182;-83
2021/01/30 01:06:16;;;;;;;0.93;0.93;;;6.40;99.90;;;;;;6158766;23;20250;-83
2021/01/30 01:11:55;;;;;;;1.08;0.98;;;6.50;99.90;;;;;;6155390;23;20184;-83
2021/01/30 01:14:26;;;;;;;3.22;1.13;;;6.60;99.90;;;;;;6157574;23;20222;-83
2021/01/30 01:17:07;;;;;;;0.70;0.70;;;6.60;99.90;;;;;;6157484;23;20203;-83
2021/01/30 01:19:47;;;;;;;0.82;0.80;;;6.60;99.90;;;;;;6156886;23;20187;-83
2021/01/30 01:22:37;;;;;;;1.83;0.80;;;6.60;99.90;;;;;;6156574;23;20163;-83
2021/01/30 01:25:05;;;;;;;0.80;0.80;;;6.50;99.90;;;;;;6156662;23;20198;-83
2021/01/30 01:27:47;;;;;;;1.30;0.90;;;6.50;99.90;;;;;;6156659;23;20646;-83
2021/01/30 01:30:27;;;;;;;0.50;0.50;;;6.60;99.90;;;;;;6156227;23;20238;-83
2021/01/30 01:33:05;;;;;;;0.55;0.50;;;6.60;99.90;;;;;;6155479;23;20163;-83
2021/01/30 01:35:59;;;;;;;1.35;0.80;;;6.70;99.90;;;;;;6157080;23;20249;-83
2021/01/30 01:38:35;;;;;;;0.98;0.98;;;6.70;99.90;;;;;;6156587;23;20206;-83
2021/01/30 01:41:16;;;;;;;1.42;0.77;;;6.70;99.90;;;;;;6156337;23;20682;-83
2021/01/30 01:43:51;;;;;;;0.60;0.60;;;6.70;99.90;;;;;;6155501;23;20182;-83
2021/01/30 01:46:30;;;;;;;0.50;0.50;;;6.80;99.90;;;;;;6156947;23;20561;-84
2021/01/30 01:49:03;;;;;;;0.70;0.70;;;6.80;99.90;;;;;;6156685;23;20193;-84
2021/01/30 01:51:42;;;;;;;0.60;0.45;;;6.90;99.90;;;;;;6155932;23;20241;-83
2021/01/30 01:54:17;;;;;;;0.95;0.60;;;6.90;99.90;;;;;;6156456;23;20497;-82
2021/01/30 01:56:46;;;;;;;0.85;0.70;;;6.90;99.90;;;;;;6156579;23;20200;-83
2021/01/30 01:59:20;;;;;;;1.48;0.85;;;6.80;99.90;;;;;;6156703;23;20205;-83
2021/01/30 02:01:46;;;;;;;0.70;0.68;;;6.70;99.90;;;;;;6156094;23;20603;-84
2021/01/30 02:04:14;;;;;;;4.03;0.88;;;6.70;99.90;;;;;;6156068;23;20179;-83
2021/01/30 02:06:44;;;;;;;1.13;0.80;;;6.60;99.90;;;;;;6156218;23;20207;-82
2021/01/30 02:09:13;;;;;;;0.45;0.45;;;6.70;99.90;;;;;;6156021;23;20185;-83
2021/01/30 02:11:39;;;;;;;2.30;0.65;;;6.70;99.90;;;;;;6156061;23;20521;-82
2021/01/30 02:14:08;;;;;;;0.55;0.55;;;6.70;99.90;;;;;;6155224;23;20186;-83
2021/01/30 02:16:44;;;;;;;0.50;0.50;;;6.70;99.90;;;;;;6155806;23;20200;-83
2021/01/30 02:19:52;;;;;;;1.35;0.70;;;6.80;99.90;;;;;;6155686;23;20249;-83
2021/01/30 02:22:53;;;;;;;0.68;0.40;;;6.80;99.90;;;;;;6154910;23;20612;-84
2021/01/30 02:26:08;;;;;;;0.73;0.60;;;6.90;99.90;;;;;;6155840;23;20179;-84
2021/01/30 02:28:44;;;;;;;0.60;0.60;;;6.90;99.90;;;;;;6155736;23;20173;-83
2021/01/30 02:31:25;;;;;;;0.55;0.50;;;6.90;99.90;;;;;;6155107;23;20194;-83
2021/01/30 02:34:05;;;;;;;0.40;0.40;;;6.90;99.90;;;;;;6155404;23;20215;-83
2021/01/30 02:36:38;;;;;;;0.40;0.40;;;7.00;99.90;;;;;;6155592;23;20191;-83
2021/01/30 02:39:25;;;;;;;;;;;;;;;;;;;;;
2021/01/30 02:41:56;;;;;;;0.70;0.50;;;7.00;99.90;;;;;;6154812;23;20249;-82
2021/01/30 02:44:24;;;;;;;2.10;0.90;;;6.90;99.90;;;;;;6155365;23;20210;-83
2021/01/30 02:46:54;;;;;;;0.50;0.50;;;6.90;99.90;;;;;;6155625;23;20204;-84
2021/01/30 02:49:26;;;;;;;3.80;0.60;;;6.90;99.90;;;;;;6155166;23;20201;-83
2021/01/30 02:52:02;;;;;;;1.73;0.50;;;6.90;99.90;;;;;;6155684;23;20237;-83
2021/01/30 02:54:33;;;;;;;0.50;0.50;;;6.80;99.90;;;;;;6155970;23;20168;-83
2021/01/30 02:57:00;;;;;;;0.60;0.60;;;6.70;99.90;;;;;;6155844;23;20513;-83
2021/01/30 02:59:29;;;;;;;0.52;0.50;;;6.70;99.90;;;;;;6155426;23;20198;-83
2021/01/30 03:01:56;;;;;;;0.68;0.68;;;6.70;99.90;;;;;;6154487;23;20185;-82
2021/01/30 03:04:24;;;;;;;0.70;0.50;;;6.60;99.90;;;;;;6153705;23;20664;-82
2021/01/30 03:07:07;;;;;;;0.43;0.40;;;6.60;99.90;;;;;;6155077;23;20206;-83
2021/01/30 03:09:40;;;;;;;0.70;0.60;;;6.60;99.90;;;;;;6155410;23;20213;-83
2021/01/30 03:12:13;;;;;;;1.25;0.70;;;6.60;99.90;;;;;;6155226;23;20163;-83
2021/01/30 03:14:45;;;;;;;0.60;0.60;;;6.60;99.90;;;;;;6155354;23;20221;-83
2021/01/30 03:17:14;;;;;;;0.77;0.70;;;6.60;99.90;;;;;;6154878;23;20203;-83
2021/01/30 03:19:40;;;;;;;0.90;0.80;;;6.60;99.90;;;;;;6155193;23;20285;-83
2021/01/30 03:22:12;;;;;;;0.57;0.57;;;6.60;99.90;;;;;;6154899;23;20665;-84
2021/01/30 03:24:45;;;;;;;0.50;0.50;;;6.60;99.90;;;;;;6155319;23;20174;-83
2021/01/30 03:27:17;;;;;;;0.82;0.80;;;6.60;99.90;;;;;;6154987;23;20199;-84
2021/01/30 03:29:43;;;;;;;0.50;0.50;;;6.60;99.90;;;;;;6155550;23;20159;-83
2021/01/30 03:32:10;;;;;;;1.08;0.80;;;6.70;99.90;;;;;;6154216;23;20207;-83
2021/01/30 03:34:41;;;;;;;0.52;0.50;;;6.70;99.90;;;;;;6155114;23;20233;-84
2021/01/30 03:37:08;;;;;;;1.30;0.70;;;6.70;99.90;;;;;;6154856;23;20231;-83
2021/01/30 03:39:34;;;;;;;0.95;0.73;;;6.70;99.90;;;;;;6155164;23;20218;-83
2021/01/30 03:42:00;;;;;;;0.93;0.80;;;6.70;99.90;;;;;;6154661;23;20187;-83
2021/01/30 03:44:26;;;;;;;0.82;0.70;;;6.70;99.90;;;;;;6154983;23;20186;-84
2021/01/30 03:46:52;;;;;;;0.63;0.63;;;6.80;99.90;;;;;;6156668;23;20203;-84
2021/01/30 03:49:19;;;;;;;0.73;0.73;;;6.80;99.90;;;;;;6156681;23;20192;-83
2021/01/30 03:51:45;;;;;;;0.70;0.70;;;6.80;99.90;;;;;;6156913;23;20183;-82
2021/01/30 03:54:13;;;;;;;0.75;0.40;;;6.80;99.90;;;;;;6156656;23;20182;-83
2021/01/30 03:56:41;;;;;;;0.50;0.50;;;6.70;99.90;;;;;;6156850;23;20203;-83
2021/01/30 03:59:08;;;;;;;0.95;0.73;;;6.70;99.90;;;;;;6156999;23;20200;-84
2021/01/30 04:01:35;;;;;;;2.03;0.65;;;6.70;99.90;;;;;;6156468;23;20261;-83
2021/01/30 04:04:02;;;;;;;1.15;0.45;;;6.70;99.90;;;;;;6157243;23;20183;-83
2021/01/30 04:06:28;;;;;;;1.63;1.52;;;6.70;99.90;;;;;;6157446;23;20203;-82
2021/01/30 04:08:54;;;;;;;0.60;0.60;;;6.70;99.90;;;;;;6158458;23;20171;-83
2021/01/30 04:11:25;;;;;;;0.50;0.40;;;6.70;99.90;;;;;;6157595;23;20702;-83
2021/01/30 04:13:52;;;;;;;0.88;0.55;;;6.70;99.90;;;;;;6158119;23;20238;-83
2021/01/30 04:16:18;;;;;;;0.50;0.50;;;6.60;99.90;;;;;;6157018;23;20203;-83
2021/01/30 04:18:45;;;;;;;0.50;0.50;;;6.60;99.90;;;;;;6156883;23;20199;-83
2021/01/30 04:21:11;;;;;;;1.05;0.90;;;6.60;99.90;;;;;;6156925;23;20179;-83
2021/01/30 04:23:37;;;;;;;0.93;0.47;;;6.60;99.90;;;;;;6156523;23;20234;-84
2021/01/30 04:26:04;;;;;;;2.90;0.80;;;6.50;99.90;;;;;;6157216;23;20179;-83
2021/01/30 04:28:31;;;;;;;1.05;0.55;;;6.50;99.90;;;;;;6157093;23;20189;-83
2021/01/30 04:30:58;;;;;;;1.58;0.50;;;6.50;99.90;;;;;;6157398;23;20189;-83
2021/01/30 04:33:24;;;;;;;2.97;0.47;;;6.50;99.90;;;;;;6157069;23;20201;-83
2021/01/30 04:35:50;;;;;;;1.77;0.82;;;6.50;99.90;;;;;;6157220;23;20183;-83
2021/01/30 04:38:16;;;;;;;0.65;0.65;;;6.40;99.90;;;;;;6157055;23;20240;-83
2021/01/30 04:40:45;;;;;;;0.65;0.65;;;6.50;99.90;;;;;;6156625;23;20198;-83
2021/01/30 04:43:18;;;;;;;1.65;0.70;;;6.40;99.90;;;;;;6157238;23;20188;-83
2021/01/30 04:45:56;;;;;;;0.85;0.50;;;6.50;99.90;;;;;;6157200;23;20168;-82
2021/01/30 04:48:39;;;;;;;0.65;0.65;;;6.50;99.90;;;;;;6156254;23;20170;-83
2021/01/30 04:51:10;;;;;;;0.70;0.70;;;6.50;99.90;;;;;;6156854;23;20161;-83
2021/01/30 04:53:48;;;;;;;0.60;0.60;;;6.60;99.90;;;;;;6155931;23;20164;-83
2021/01/30 04:56:23;;;;;;;0.60;0.40;;;6.60;99.90;;;;;;6156395;23;20210;-83
2021/01/30 04:59:02;;;;;;;0.68;0.68;;;6.60;99.90;;;;;;6156415;23;20190;-83
2021/01/30 05:01:38;;;;;;;0.90;0.70;;;6.60;99.90;;;;;;6156573;23;20163;-82
2021/01/30 05:04:17;;;;;;;1.42;0.90;;;6.60;99.90;;;;;;6156989;23;20167;-83
2021/01/30 05:06:54;;;;;;;0.95;0.70;;;6.60;99.90;;;;;;6156515;23;20213;-83
2021/01/30 05:09:28;;;;;;;1.75;1.10;;;6.60;99.90;;;;;;6156691;23;20171;-84
2021/01/30 05:12:02;;;;;;;1.63;0.80;;;6.60;99.90;;;;;;6156551;23;20171;-84
2021/01/30 05:14:35;;;;;;;0.75;0.73;;;6.60;99.90;;;;;;6157015;23;20256;-83
2021/01/30 05:17:09;;;;;;;0.82;0.73;;;6.70;99.90;;;;;;6157110;23;20199;-83
2021/01/30 05:19:40;;;;;;;1.13;1.02;;;6.70;99.90;;;;;;6156607;23;20190;-83
2021/01/30 05:22:09;;;;;;;2.15;0.82;;;6.70;99.90;;;;;;6156639;23;20164;-83
2021/01/30 05:24:35;;;;;;;2.58;0.80;;;6.60;99.90;;;;;;6156164;23;20182;-83
2021/01/30 05:27:35;;;;;;;3.30;1.10;;;6.60;99.90;;;;;;6156404;23;20202;-83
2021/01/30 05:30:08;;;;;;;0.68;0.68;;;6.60;99.90;;;;;;6156808;23;20618;-83
2021/01/30 05:32:46;;;;;;;1.52;0.90;;;6.60;99.90;;;;;;6156516;23;20502;-83
2021/01/30 05:35:17;;;;;;;9.70;1.67;;;6.60;99.90;;;;;;6157046;23;20164;-83
2021/01/30 05:37:48;;;;;;;5.00;1.40;;;6.60;99.90;;;;;;6156873;23;20217;-83
2021/01/30 05:40:32;;;;;;;2.17;1.30;;;6.50;99.90;;;;;;6156927;23;20194;-83
2021/01/30 05:43:12;;;;;;;4.32;1.83;;;6.60;99.90;;;;;;6156704;23;20166;-84
2021/01/30 05:45:44;;;;;;;1.15;1.15;;;6.60;99.90;;;;;;6157498;23;20497;-82
2021/01/30 05:48:13;;;;;;;2.80;1.23;;;6.50;99.90;;;;;;6156953;23;20203;-83
2021/01/30 05:50:45;;;;;;;2.65;1.33;;;6.50;99.90;;;;;;6157247;23;20195;-82
2021/01/30 05:53:19;;;;;;;2.75;1.15;;;6.60;99.90;;;;;;6156864;23;20615;-83
2021/01/30 05:55:45;;;;;;;3.40;1.10;;;6.60;99.90;;;;;;6157870;23;20166;-83
2021/01/30 05:58:14;;;;;;;3.80;1.75;;;6.50;99.90;;;;;;6157126;23;20212;-82
2021/01/30 06:00:42;;;;;;;3.72;1.58;;;6.50;99.90;;;;;;6157200;23;20537;-83
2021/01/30 06:03:13;;;;;;;2.22;1.30;;;6.40;99.90;;;;;;6156941;23;20183;-82
2021/01/30 06:05:43;;;;;;;3.30;1.40;;;6.50;99.90;;;;;;6156221;23;20724;-82
2021/01/30 06:08:18;;;;;;;1.75;1.15;;;6.50;99.90;;;;;;6156740;23;20205;-84
2021/01/30 06:10:45;;;;;;;7.88;1.60;;;6.40;99.90;;;;;;6156667;23;20167;-83
2021/01/30 06:13:15;;;;;;;4.78;1.88;;;6.40;99.90;;;;;;6156647;23;20249;-84
2021/01/30 06:15:44;;;;;;;2.35;1.80;;;6.30;99.90;;;;;;6156662;23;20166;-83
2021/01/30 06:18:30;;;;;;;2.83;1.65;;;6.40;99.90;;;;;;6156112;23;20937;-82
2021/01/30 06:21:00;;;;;;;6.07;2.08;;;6.40;99.90;;;;;;6156935;23;20599;-83
2021/01/30 06:23:27;;;;;;;4.47;1.83;;;6.50;99.90;;;;;;6156552;23;20183;-83
2021/01/30 06:26:05;;;;;;;2.50;1.98;;;6.40;99.90;;;;;;6156894;23;20180;-83
2021/01/30 06:28:35;;;;;;;7.88;2.40;;;6.50;99.90;;;;;;6155943;23;20517;-82
2021/01/30 06:31:11;;;;;;;3.38;1.83;;;6.40;99.90;;;;;;6156610;23;20181;-83
2021/01/30 06:33:45;;;;;;;1.90;1.70;;;6.40;99.90;;;;;;6155859;23;20184;-83
2021/01/30 06:36:15;;;;;;;3.47;1.70;;;6.40;99.90;;;;;;6156393;23;20206;-83
2021/01/30 06:38:45;;;;;;;6.88;2.90;;;6.40;99.90;;;;;;6155769;23;20155;-83
2021/01/30 06:41:19;;;;;;;1.15;1.10;;;6.50;99.90;;;;;;6156529;23;20204;-82
2021/01/30 06:43:53;;;;;;;4.63;1.55;;;6.40;99.90;;;;;;6155944;23;20488;-83
2021/01/30 06:46:21;;;;;;;1.70;1.45;;;6.40;99.90;;;;;;6159634;23;20690;-81
2021/01/30 06:48:49;;;;;;;2.85;1.50;;;6.50;99.90;;;;;;6160488;23;20187;-83
2021/01/30 06:51:25;;;;;;;5.40;1.90;;;6.50;99.90;;;;;;6163039;23;20497;-83
2021/01/30 06:53:51;;;;;;;2.72;1.58;;;6.60;99.90;;;;;;6161550;23;20179;-82
2021/01/30 06:56:22;;;;;;;4.13;1.70;;;6.50;99.90;;;;;;6159543;23;20203;-83
2021/01/30 06:58:50;;;;;;;3.17;2.05;;;6.50;99.90;;;;;;6156599;23;20178;-83
2021/01/30 07:01:20;;;;;;;7.13;2.28;;;6.60;99.90;;;;;;6155685;23;20639;-82
2021/01/30 07:04:10;;;;;;;6.03;2.17;;;6.50;99.90;;;;;;6155594;23;20183;-82
2021/01/30 07:06:51;;;;;;;2.00;1.67;;;6.50;99.90;;;;;;6157274;23;20255;-83
2021/01/30 07:09:48;;;;;;;3.70;1.95;;;6.60;99.90;;;;;;6159415;23;20164;-83
2021/01/30 07:12:18;;;;;;;3.58;2.30;;;6.60;99.90;;;;;;6159173;23;20167;-83
2021/01/30 07:15:01;;;;;;;3.97;2.00;;;6.60;99.90;;;;;;6157943;23;20164;-82
2021/01/30 07:17:55;;;;;;;3.35;1.52;;;6.60;99.90;;;;;;6155985;23;20206;-82
2021/01/30 07:20:32;;;;;;;3.25;2.70;;;6.60;99.90;;;;;;6157108;23;20186;-84
2021/01/30 07:23:06;;;;;;;4.50;2.22;;;6.60;99.90;;;;;;6158764;23;20578;-82
2021/01/30 07:25:43;;;;;;;3.75;2.00;;;6.60;99.90;;;;;;6158984;23;20163;-82
2021/01/30 07:28:20;;;;;;;6.63;2.85;;;6.60;99.90;;;;;;6158262;23;20195;-83
2021/01/30 07:30:53;;;;;;;3.97;2.45;;;6.60;99.90;;;;;;6158770;23;20159;-83
2021/01/30 07:33:26;;;;;;;5.82;2.20;;;6.60;99.90;;;;;;6158007;23;20164;-82
2021/01/30 07:35:59;;;;;;;3.42;2.63;;;6.70;99.90;;;;;;6157238;23;20163;-83
2021/01/30 07:38:33;;;;;;;4.80;2.00;;;6.60;99.90;;;;;;6157490;23;20181;-83
2021/01/30 07:41:02;;;;;;;5.05;2.20;;;6.70;99.90;;;;;;6157588;23;20187;-83
2021/01/30 07:43:33;;;;;;;3.28;2.35;;;6.70;99.90;;;;;;6158329;23;20190;-84
2021/01/30 07:46:06;;;;;;;7.60;1.92;;;6.70;99.90;;;;;;6160388;23;20171;-84
2021/01/30 07:48:36;;;;;;;2.22;2.03;;;6.80;99.90;;;;;;6157612;23;20200;-83
2021/01/30 07:51:08;;;;;;;4.00;1.92;;;6.90;99.90;;;;;;6157645;23;20497;-83
2021/01/30 07:53:35;;;;;;;11.65;2.35;;;6.90;99.90;;;;;;6157218;23;20553;-83
2021/01/30 07:56:14;;;;;;;5.95;2.90;;;6.80;99.90;;;;;;6156677;23;20175;-84
2021/01/30 07:58:58;;;;;;;7.72;2.42;;;6.90;99.90;;;;;;6157425;23;20172;-83
2021/01/30 08:01:44;;;;;;;3.47;2.30;;;6.90;99.90;;;;;;6156889;23;20622;-83
2021/01/30 08:04:46;;;;;;;2.05;1.70;;;6.80;99.90;;;;;;6157724;23;20168;-83
2021/01/30 08:07:25;;;;;;;4.32;2.08;;;6.90;99.90;;;;;;6157219;23;20198;-84
2021/01/30 08:10:00;;;;;;;9.38;2.30;;;6.80;99.90;;;;;;6157762;23;20178;-83
2021/01/30 08:12:43;;;;;;;10.18;2.40;;;6.70;99.90;;;;;;6158408;23;20168;-84
2021/01/30 08:15:15;;;;;;;3.30;3.00;;;6.80;99.90;;;;;;6157311;23;20586;-84
2021/01/30 08:17:57;;;;;;;4.97;2.90;;;6.90;99.90;;;;;;6157912;23;20221;-84
2021/01/30 08:20:35;;;;;;;7.90;2.17;;;7.00;99.90;;;;;;6157712;23;20194;-84
2021/01/30 08:23:10;;;;;;;5.80;2.25;;;7.20;99.90;;;;;;6157119;23;20174;-85
2021/01/30 08:25:46;;;;;;;8.13;2.50;;;7.20;99.90;;;;;;6157459;23;20163;-85
2021/01/30 08:28:19;;;;;;;6.78;2.55;;;7.20;99.90;;;;;;6157131;23;20658;-84
2021/01/30 08:30:45;;;;;;;5.72;2.00;;;7.30;99.90;;;;;;6157606;23;20160;-84
2021/01/30 08:33:12;;;;;;;6.55;2.30;;;7.30;99.90;;;;;;6157076;23;20183;-85
2021/01/30 08:35:50;;;;;;;5.03;2.63;;;7.40;99.90;;;;;;6156734;23;20182;-85
2021/01/30 08:38:35;;;;;;;4.85;2.00;;;7.50;99.90;;;;;;6157888;23;20167;-82
2021/01/30 08:41:12;;;;;;;8.15;3.35;;;7.60;99.90;;;;;;6157777;23;20241;-83
2021/01/30 08:43:42;;;;;;;6.00;2.90;;;7.60;99.90;;;;;;6170153;23;20171;-83
2021/01/30 08:46:27;;;;;;;6.20;2.72;;;7.70;99.90;;;;;;6181971;23;20265;-82
2021/01/30 08:49:05;;;;;;;8.85;3.35;;;7.70;99.90;;;;;;6182958;23;20239;-85
2021/01/30 08:51:32;;;;;;;3.33;2.13;;;7.70;99.90;;;;;;6181835;23;20218;-81
2021/01/30 08:54:19;;;;;;;3.10;2.03;;;7.80;99.90;;;;;;6183586;23;20247;-81
2021/01/30 08:56:49;;;;;;;8.73;3.42;;;7.80;99.90;;;;;;6184037;23;20254;-81
2021/01/30 08:59:39;;;;;;;6.93;2.65;;;7.80;99.90;;;;;;6183371;23;20263;-81
2021/01/30 09:02:07;;;;;;;4.18;2.85;;;7.80;99.90;;;;;;6175789;23;20227;-82
2021/01/30 09:04:45;;;;;;;3.92;2.75;;;7.80;99.90;;;;;;6183319;23;20222;-82
2021/01/30 09:07:34;;;;;;;4.13;2.30;;;7.80;99.90;;;;;;6183758;23;20247;-82
2021/01/30 09:10:33;;;;;;;5.80;2.38;;;7.80;99.90;;;;;;6180708;23;20203;-83
2021/01/30 09:13:03;;;;;;;8.35;2.47;;;7.80;99.90;;;;;;6144292;23;20191;-84
2021/01/30 09:15:56;;;;;;;3.85;3.10;;;7.80;99.90;;;;;;6156682;23;20216;-84
2021/01/30 09:18:34;;;;;;;4.10;2.70;;;7.80;99.90;;;;;;6157349;23;20179;-85
2021/01/30 09:21:07;;;;;;;8.40;2.67;;;7.80;99.90;;;;;;6158779;23;20226;-84
2021/01/30 09:23:44;;;;;;;4.07;3.13;;;7.80;99.90;;;;;;6162406;23;20164;-84
2021/01/30 09:26:21;;;;;;;5.88;3.20;;;7.90;99.90;;;;;;6160572;23;20206;-84
2021/01/30 09:28:55;;;;;;;6.65;3.97;;;8.00;99.90;;;;;;6159622;23;20163;-84
2021/01/30 09:31:23;;;;;;;5.10;2.90;;;8.10;99.90;;;;;;6159839;23;20189;-84
2021/01/30 09:34:01;;;;;;;6.45;3.25;;;8.00;99.90;;;;;;6158762;23;20333;-83
2021/01/30 09:36:32;;;;;;;3.97;2.95;;;8.10;99.90;;;;;;6160695;23;20581;-84
2021/01/30 09:39:00;;;;;;;6.50;2.90;;;8.20;99.90;;;;;;6159726;23;20217;-83
2021/01/30 09:41:28;;;;;;;6.47;3.38;;;8.20;99.90;;;;;;6158056;23;20184;-83
2021/01/30 09:44:17;;;;;;;9.32;2.92;;;8.20;99.90;;;;;;6157987;23;20583;-84
2021/01/30 09:46:46;;;;;;;5.35;2.42;;;8.30;99.90;;;;;;6158848;23;20207;-84
2021/01/30 09:49:18;;;;;;;4.15;2.40;;;8.40;99.90;;;;;;6158016;23;20190;-84
2021/01/30 09:51:45;;;;;;;4.82;2.97;;;8.50;99.90;;;;;;6158832;23;20511;-84
2021/01/30 09:54:15;;;;;;;7.70;2.90;;;8.50;99.90;;;;;;6158132;23;20726;-84
2021/01/30 09:56:42;;;;;;;5.38;2.60;;;8.50;99.90;;;;;;6158182;23;20211;-84
2021/01/30 09:59:13;;;;;;;5.32;2.60;;;8.50;99.90;;;;;;6157320;23;20179;-84
2021/01/30 10:01:41;;;;;;;7.22;3.55;;;8.50;99.90;;;;;;6158538;23;20164;-84
2021/01/30 10:04:19;;;;;;;4.28;2.65;;;8.50;99.90;;;;;;6159260;23;20705;-84
2021/01/30 10:06:46;;;;;;;4.00;2.30;;;8.50;99.90;;;;;;6162564;23;20203;-83
2021/01/30 10:09:17;;;;;;;3.92;3.47;;;8.60;99.90;;;;;;6161878;23;20179;-82
2021/01/30 10:11:47;;;;;;;22.90;4.03;;;8.60;99.90;;;;;;6164433;23;20172;-84
2021/01/30 10:14:16;;;;;;;5.13;3.13;;;8.70;99.90;;;;;;6164510;23;20206;-85
2021/01/30 10:16:45;;;;;;;6.60;2.90;;;8.70;99.90;;;;;;6164756;23;20238;-84
2021/01/30 10:19:23;;;;;;;4.70;3.80;;;8.60;99.90;;;;;;6165669;23;20183;-85
2021/01/30 10:21:50;;;;;;;4.80;2.10;;;8.70;99.90;;;;;;6165753;23;20167;-85
2021/01/30 10:24:19;;;;;;;5.85;3.10;;;8.70;99.90;;;;;;6164151;23;20190;-84
2021/01/30 10:26:47;;;;;;;10.35;4.13;;;8.60;99.90;;;;;;6162717;23;20199;-85
2021/01/30 10:29:17;;;;;;;6.20;3.40;;;8.50;99.90;;;;;;6157190;23;20178;-85
2021/01/30 10:31:49;;;;;;;4.43;2.45;;;8.60;99.90;;;;;;6157626;23;20646;-86
2021/01/30 10:34:23;;;;;;;5.80;3.50;;;8.60;99.90;;;;;;6157552;23;20218;-85
2021/01/30 10:36:56;;;;;;;8.13;3.85;;;8.60;99.90;;;;;;6160515;23;20199;-85
2021/01/30 10:39:27;;;;;;;7.20;2.38;;;8.60;99.90;;;;;;6159176;23;20187;-86
2021/01/30 10:42:04;;;;;;;4.80;2.60;;;8.50;99.90;;;;;;6159627;23;20167;-86
2021/01/30 10:44:39;;;;;;;4.53;2.53;;;8.50;99.90;;;;;;6159779;23;20175;-84
2021/01/30 10:47:07;;;;;;;5.70;2.33;;;8.40;99.90;;;;;;6163898;23;20213;-84
2021/01/30 10:49:37;;;;;;;7.10;2.03;;;8.40;99.90;;;;;;6177112;23;20519;-83
2021/01/30 10:52:14;;;;;;;7.55;3.33;;;8.40;99.90;;;;;;6182215;23;20219;-84
2021/01/30 10:54:41;;;;;;;7.55;3.28;;;8.40;99.90;;;;;;6182031;23;20167;-83
2021/01/30 10:57:12;;;;;;;8.43;2.83;;;8.40;99.90;;;;;;6182191;23;20222;-84
2021/01/30 10:59:48;;;;;;;7.07;4.30;;;8.40;99.90;;;;;;6182730;23;20203;-83
2021/01/30 11:02:20;;;;;;;2.78;2.25;;;8.40;99.90;;;;;;6182938;23;20172;-83
2021/01/30 11:05:00;;;;;;;4.38;2.53;;;8.50;99.90;;;;;;6182771;23;20237;-83
2021/01/30 11:07:36;;;;;;;9.27;4.05;;;8.60;99.90;;;;;;6182507;23;20183;-83
2021/01/30 11:10:04;;;;;;;7.97;3.72;;;8.60;99.90;;;;;;6182816;23;20199;-81
2021/01/30 11:12:30;;;;;;;7.60;3.72;;;8.60;99.90;;;;;;6182417;23;20180;-80
2021/01/30 11:14:57;;;;;;;9.25;3.08;;;8.70;99.90;;;;;;6182415;23;20231;-80
2021/01/30 11:17:27;;;;;;;5.15;3.47;;;8.80;99.90;;;;;;6177988;23;20354;-85
2021/01/30 11:19:53;;;;;;;7.43;3.30;;;8.80;99.90;;;;;;6158429;23;20199;-85
2021/01/30 11:22:25;;;;;;;5.22;2.90;;;8.90;99.90;;;;;;6155709;23;20252;-84
2021/01/30 11:25:06;;;;;;;5.43;2.90;;;9.00;99.90;;;;;;6156143;23;20543;-85
2021/01/30 11:27:37;;;;;;;8.48;3.22;;;9.00;99.90;;;;;;6155125;23;20204;-84
2021/01/30 11:30:21;;;;;;;8.10;4.03;;;9.10;99.90;;;;;;6156389;23;20166;-85
2021/01/30 11:32:50;;;;;;;7.25;3.30;;;9.20;99.90;;;;;;6155866;23;20207;-84
2021/01/30 11:35:22;;;;;;;7.05;3.20;;;9.30;99.90;;;;;;6158939;23;20305;-84
2021/01/30 11:37:49;;;;;;;7.53;3.50;;;9.30;99.90;;;;;;6160945;23;20209;-85
2021/01/30 11:40:23;;;;;;;7.95;4.20;;;9.40;99.90;;;;;;6158732;23;20206;-85
2021/01/30 11:42:58;;;;;;;8.50;2.45;;;9.40;99.90;;;;;;6156261;23;20163;-85
2021/01/30 11:58:33;;;;;;;3.63;3.28;;;9.80;99.90;;;;;;5811847;24;20339;-86
2021/01/30 12:08:13;;;;;;;6.00;2.80;;;9.80;99.90;;;;;;6143774;23;20545;-83
2021/01/30 16:42:37;;;;;;;3.33;3.03;;;7.30;99.90;;;;;;6157780;23;20213;-84
2021/01/30 17:59:29;;;;;;;3.97;3.67;;;7.10;99.90;;;;;;6043069;23;20207;-86
2021/01/30 18:01:55;;;;;;;7.57;4.22;;;7.00;99.90;;;;;;6042472;23;20261;-86
2021/01/30 18:04:25;;;;;;;5.03;4.70;;;7.00;99.90;;;;;;6101312;23;20218;-86
2021/01/30 18:06:51;;;;;;;4.10;3.80;;;7.00;99.90;;;;;;6132224;23;20460;-86
2021/01/30 18:09:18;;;;;;;4.45;4.15;;;7.00;99.90;;;;;;6133603;23;20664;-86
2021/01/30 18:11:44;;;;;;;5.50;4.35;;;7.00;99.90;;;;;;6134686;23;20702;-86
2021/01/30 18:14:11;;;;;;;4.68;4.40;;;7.00;99.90;;;;;;6135761;23;20186;-86
2021/01/30 18:16:38;;;;;;;5.82;5.13;;;7.10;99.90;;;;;;6136367;23;20200;-86
2021/01/30 18:19:04;;;;;;;6.18;5.68;;;7.10;99.90;;;;;;6136183;23;20184;-86
2021/01/30 18:21:44;;;;;;;5.85;5.35;;;7.20;99.90;;;;;;6135739;23;20208;-86
2021/01/30 18:24:12;;;;;;;5.72;5.18;;;7.20;99.90;;;;;;6135591;23;20168;-86
2021/01/30 18:26:45;;;;;;;5.68;5.13;;;7.20;99.90;;;;;;6135457;23;20512;-86
2021/01/30 18:29:13;;;;;;;5.82;5.32;;;7.20;99.90;;;;;;6135987;23;20247;-86
2021/01/30 18:31:40;;;;;;;5.65;5.18;;;7.20;99.90;;;;;;6134932;23;20522;-86
2021/01/30 18:34:14;;;;;;;5.43;4.45;;;7.20;99.90;;;;;;6135668;23;20186;-86
2021/01/30 18:36:40;;;;;;;5.78;4.68;;;7.20;99.90;;;;;;6135933;23;20204;-86
2021/01/30 18:39:07;;;;;;;6.10;5.60;;;7.20;99.90;;;;;;6135683;23;20295;-86
2021/01/30 18:41:37;;;;;;;6.80;6.15;;;7.20;99.90;;;;;;6135973;23;20204;-86
2021/01/30 18:44:05;;;;;;;6.65;5.97;;;7.20;99.90;;;;;;6136158;23;20187;-86
2021/01/30 18:46:34;;;;;;;6.93;6.32;;;7.20;99.90;;;;;;6135361;23;20273;-86
2021/01/30 18:52:17;;;;;;;;;;;;;;;;;;;;;
2021/01/30 18:57:59;;;;;;;7.45;6.07;;;7.20;99.90;;;;;;6064361;23;20188;-85
2021/01/30 19:00:30;;;;;;;6.88;6.20;;;7.20;99.90;;;;;;6131767;23;20282;-85
2021/01/30 19:10:16;;;;;;;6.65;6.15;;;7.20;99.90;;;;;;5892426;24;20186;-86
2021/01/30 19:15:57;;;;;;;7.30;6.60;;;7.30;99.90;;;;;;6062692;23;20181;-87
2021/01/30 19:18:46;;;;;;;7.55;6.93;;;7.20;99.90;;;;;;6125722;23;20160;-86
2021/01/30 19:21:54;;;;;;;8.05;7.35;;;7.20;99.90;;;;;;6127324;23;20195;-87
2021/01/30 19:27:48;;;;;;;8.23;7.45;;;7.20;99.90;;;;;;6043058;23;20545;-86
2021/01/30 21:54:09;;;;;;;6.15;5.68;;;6.00;99.90;;;;;;6105342;23;20525;-86
2021/01/30 22:06:32;;;;;;;7.30;6.60;;;5.70;99.90;;;;;;5929725;23;20707;-86
2021/01/30 22:09:24;;;;;;;;;;;;;;;;;;;;;
2021/01/30 22:12:18;;;;;;;;;;;;;;;;;;;;;
2021/01/30 22:15:21;;;;;;;;;;;;;;;;;;;;;
2021/01/30 22:21:34;;;;;;;9.23;8.15;;;5.30;99.90;;;;;;6092239;23;20223;-85
2021/01/30 22:24:32;;;;;;;7.53;6.78;;;5.30;99.90;;;;;;6136334;23;20169;-86
2021/01/30 22:27:04;;;;;;;7.80;7.00;;;5.20;99.90;;;;;;6056350;23;20223;-86
2021/01/30 22:29:43;;;;;;;;;;;;;;;;;;;;;
2021/01/30 22:37:58;;;;;;;17.50;9.32;;;5.00;99.90;;;;;;6129571;23;20225;-87
2021/01/30 22:40:43;;;;;;;10.60;8.32;;;5.00;99.90;;;;;;6136073;23;20208;-87
2021/01/30 22:53:09;;;;;;;13.48;8.20;;;4.90;99.90;;;;;;6131289;23;20480;-85
2021/01/30 22:58:33;;;;;;;17.63;9.60;;;4.70;99.90;;;;;;6136438;23;20182;-85
2021/01/30 23:04:51;;;;;;;8.18;7.38;;;4.80;99.90;;;;;;5964930;23;20178;-85
2021/01/30 23:10:14;;;;;;;7.82;7.22;;;4.70;99.90;;;;;;6138900;23;20496;-83
2021/01/30 23:13:00;;;;;;;;;;;;;;;;;;;;;
2021/01/30 23:15:51;;;;;;;6.95;6.40;;;4.60;99.90;;;;;;6133322;23;20194;-86